Time;durP1;ratioP1;P1;durP2;ratioP2;P2;SDS_P1;SDS_P2;PMS_P1;PMS_P2;Temp;Humidity;BMP_temperature;BMP_pressure;BME280_temperature;BME280_humidity;BME280_pressure;Samples;Min_cycle;Max_cycle;Signal;HPM_P1;HPM_P2
2023/01/30 00:01:23;;;;;;;1999.90;999.90;;;12.20;1.00;;;;;;4958540;28;20056;-83
2023/01/30 00:03:50;;;;;;;1999.90;999.90;;;;;;;;;;4965238;28;20373;-84
2023/01/30 00:06:15;;;;;;;1999.90;814.70;;;10.60;99.90;;;;;;4960195;28;20047;-84
2023/01/30 00:08:41;;;;;;;1999.90;999.90;;;10.60;99.90;;;;;;4941276;29;20058;-84
2023/01/30 00:11:09;;;;;;;1999.90;803.60;;;10.70;99.90;;;;;;4945722;28;20055;-84
2023/01/30 00:13:36;;;;;;;1999.90;605.08;;;10.70;99.90;;;;;;4951621;28;20145;-84
2023/01/30 00:16:02;;;;;;;1999.90;833.83;;;10.70;99.90;;;;;;4950641;28;20160;-84
2023/01/30 00:18:27;;;;;;;1999.90;999.90;;;10.70;99.90;;;;;;4937396;29;20134;-83
2023/01/30 00:20:57;;;;;;;1999.90;821.97;;;10.80;99.90;;;;;;4956081;28;20477;-84
2023/01/30 00:23:24;;;;;;;1999.90;807.78;;;10.80;99.90;;;;;;4953914;28;20448;-85
2023/01/30 00:25:50;;;;;;;1999.90;999.90;;;11.70;99.90;;;;;;4953582;28;20047;-84
2023/01/30 00:28:16;;;;;;;1999.90;882.55;;;10.90;99.90;;;;;;4948845;28;20399;-83
2023/01/30 00:30:41;;;;;;;1999.90;999.90;;;10.90;99.90;;;;;;4930872;29;20575;-85
2023/01/30 00:33:08;;;;;;;1999.90;814.78;;;10.90;99.90;;;;;;4946839;29;20047;-83
2023/01/30 00:35:34;;;;;;;1999.90;981.40;;;10.90;99.90;;;;;;4956672;28;20142;-83
2023/01/30 00:38:00;;;;;;;1999.90;843.75;;;11.00;99.90;;;;;;4958466;28;20500;-83
2023/01/30 00:40:27;;;;;;;1999.90;712.85;;;11.00;99.90;;;;;;4957883;28;20062;-84
2023/01/30 00:48:25;;;;;;;1999.90;943.40;;;11.00;99.90;;;;;;4947026;29;20091;-83
2023/01/30 00:50:50;;;;;;;1999.90;975.13;;;11.00;99.90;;;;;;4951485;28;20043;-83
2023/01/30 00:53:16;;;;;;;1999.90;999.90;;;11.00;99.90;;;;;;4928092;28;20070;-83
2023/01/30 00:55:43;;;;;;;1999.90;999.90;;;11.00;99.90;;;;;;4950156;28;20505;-86
2023/01/30 00:58:09;;;;;;;1999.90;999.90;;;11.00;99.90;;;;;;4952889;28;20051;-83
2023/01/30 01:00:35;;;;;;;1999.90;999.90;;;10.90;99.90;;;;;;4947091;28;20055;-84
2023/01/30 01:03:01;;;;;;;1999.90;940.78;;;10.90;33.90;;;;;;4947131;28;20054;-85
2023/01/30 01:05:27;;;;;;;1999.90;887.00;;;12.00;99.90;;;;;;4954539;28;20043;-84
2023/01/30 01:07:54;;;;;;;1999.90;398.23;;;10.60;99.90;;;;;;4940151;28;20054;-85
2023/01/30 01:10:20;;;;;;;1999.90;972.33;;;10.80;99.90;;;;;;4945362;28;20409;-83
2023/01/30 01:12:47;;;;;;;1999.90;837.25;;;10.90;68.10;;;;;;4938295;29;20055;-85
2023/01/30 01:15:13;;;;;;;1999.90;825.33;;;9.50;99.90;;;;;;4952367;28;20381;-88
2023/01/30 01:17:41;;;;;;;1999.90;698.25;;;11.00;99.90;;;;;;4944989;28;20086;-84
2023/01/30 01:20:09;;;;;;;1999.90;603.15;;;10.70;1.00;;;;;;4914438;29;20107;-84
2023/01/30 01:22:35;;;;;;;1999.90;660.72;;;11.10;96.80;;;;;;4947880;28;20098;-84
2023/01/30 01:25:01;;;;;;;1999.90;717.38;;;10.70;99.90;;;;;;4914238;29;20159;-85
2023/01/30 01:27:28;;;;;;;1999.90;487.20;;;11.30;99.90;;;;;;4945364;29;20126;-85
2023/01/30 01:29:53;;;;;;;1999.90;737.88;;;11.00;99.90;;;;;;4946042;28;20043;-86
2023/01/30 01:32:20;;;;;;;1999.90;999.90;;;10.60;99.90;;;;;;4936910;29;20047;-85
2023/01/30 01:34:48;;;;;;;1999.90;638.28;;;11.10;99.90;;;;;;4935563;28;20392;-89
2023/01/30 01:37:14;;;;;;;1999.90;459.10;;;11.10;99.90;;;;;;4933943;29;20047;-93
2023/01/30 01:42:34;;;;;;;1999.90;872.05;;;9.20;99.90;;;;;;4936646;29;20497;-96
2023/01/30 01:45:12;;;;;;;1999.90;680.72;;;10.70;99.90;;;;;;4937301;29;20173;-93
2023/01/30 01:47:42;;;;;;;1999.90;471.97;;;11.40;99.90;;;;;;4934762;29;20047;-91
2023/01/30 01:50:23;;;;;;;1999.90;894.63;;;10.70;99.90;;;;;;4932989;29;20314;-91
2023/01/30 01:52:53;;;;;;;1999.90;772.60;;;10.50;99.90;;;;;;4929181;29;20055;-92
2023/01/30 01:55:22;;;;;;;1999.90;697.72;;;12.50;99.90;;;;;;4941579;29;20407;-91
2023/01/30 01:58:11;;;;;;;1999.90;514.00;;;11.60;99.90;;;;;;4931826;29;20055;-90
2023/01/30 02:00:37;;;;;;;1999.90;754.60;;;11.50;99.90;;;;;;4930902;29;20412;-89
2023/01/30 02:03:10;;;;;;;1999.90;620.40;;;11.00;99.90;;;;;;4947538;28;20058;-89
2023/01/30 02:05:41;;;;;;;1999.90;645.15;;;10.70;99.90;;;;;;4933071;29;20126;-87
2023/01/30 02:08:15;;;;;;;1999.90;636.22;;;10.80;99.90;;;;;;4961472;28;20077;-89
2023/01/30 02:11:09;;;;;;;1999.90;665.70;;;11.70;99.90;;;;;;4941963;28;20054;-89
2023/01/30 02:13:35;;;;;;;1999.90;820.17;;;11.60;99.90;;;;;;4952927;28;20059;-92
2023/01/30 02:16:02;;;;;;;1999.90;899.15;;;11.00;99.90;;;;;;4951105;28;20039;-86
2023/01/30 02:18:31;;;;;;;1999.90;963.85;;;13.30;99.90;;;;;;4951984;28;20051;-88
2023/01/30 02:21:09;;;;;;;1999.90;825.92;;;11.70;99.90;;;;;;4932000;29;20047;-87
2023/01/30 02:23:43;;;;;;;1999.90;608.50;;;10.90;99.90;;;;;;4950330;28;20050;-89
2023/01/30 02:26:35;;;;;;;1999.90;652.42;;;9.90;99.90;;;;;;4950722;29;20408;-89
2023/01/30 02:29:39;;;;;;;1999.90;432.45;;;11.40;99.90;;;;;;4908234;29;20090;-87
2023/01/30 02:32:11;;;;;;;1999.90;656.15;;;10.60;99.90;;;;;;4942667;28;20059;-87
2023/01/30 02:34:55;;;;;;;1999.90;788.40;;;11.80;99.90;;;;;;4951643;29;20106;-88
2023/01/30 02:37:44;;;;;;;1999.90;628.22;;;12.30;99.90;;;;;;4950635;28;20054;-92
2023/01/30 02:40:19;;;;;;;1999.90;778.33;;;11.10;99.90;;;;;;4942302;28;20079;-87
2023/01/30 02:42:57;;;;;;;1999.90;798.60;;;11.50;99.90;;;;;;4930924;29;20055;-88
2023/01/30 02:45:29;;;;;;;1999.90;643.60;;;14.10;99.90;;;;;;4942561;28;20058;-87
2023/01/30 02:48:05;;;;;;;1999.90;586.47;;;11.90;99.90;;;;;;4952404;28;20075;-86
2023/01/30 02:50:49;;;;;;;1999.90;526.13;;;11.10;99.90;;;;;;4944092;28;20043;-86
2023/01/30 02:53:15;;;;;;;1999.90;630.03;;;11.70;99.90;;;;;;4950131;28;20504;-86
2023/01/30 02:55:41;;;;;;;1999.90;758.88;;;11.70;99.90;;;;;;4934197;28;20108;-86
2023/01/30 02:58:08;;;;;;;1999.90;673.13;;;11.70;99.90;;;;;;4933983;29;20183;-85
2023/01/30 03:01:02;;;;;;;1999.90;999.90;;;10.20;99.90;;;;;;4944198;28;20551;-85
2023/01/30 03:04:04;;;;;;;1999.90;738.22;;;11.60;99.90;;;;;;4954240;29;20060;-85
2023/01/30 03:06:36;;;;;;;1999.90;516.78;;;9.40;99.90;;;;;;4953058;28;20082;-85
2023/01/30 03:09:21;;;;;;;1999.90;808.92;;;11.50;99.90;;;;;;4945248;29;20075;-84
2023/01/30 03:11:58;;;;;;;1999.90;702.88;;;11.50;99.90;;;;;;4943841;28;20095;-85
2023/01/30 03:14:29;;;;;;;1999.90;854.45;;;12.00;99.90;;;;;;4958314;29;20047;-84
2023/01/30 03:16:58;;;;;;;1999.90;976.70;;;11.80;99.90;;;;;;4956284;28;20047;-87
2023/01/30 03:19:25;;;;;;;1999.90;403.58;;;12.00;99.90;;;;;;4941226;29;20114;-87
2023/01/30 03:21:51;;;;;;;1999.90;811.10;;;13.70;99.90;;;;;;4938324;29;20419;-85
2023/01/30 03:24:17;;;;;;;1999.90;836.17;;;;;;;;;;4925665;29;20051;-87
2023/01/30 03:26:49;;;;;;;1999.90;633.50;;;10.60;99.90;;;;;;4935403;29;20055;-87
2023/01/30 03:29:15;;;;;;;1999.90;817.05;;;12.00;99.90;;;;;;4938881;29;20058;-86
2023/01/30 03:31:41;;;;;;;1999.90;999.90;;;11.40;99.90;;;;;;4938316;28;20127;-87
2023/01/30 03:34:07;;;;;;;1999.90;964.42;;;12.00;99.90;;;;;;4957737;29;20480;-87
2023/01/30 03:36:32;;;;;;;1999.90;999.90;;;10.70;99.90;;;;;;4940810;29;20039;-86
2023/01/30 03:38:58;;;;;;;1999.90;773.50;;;11.90;99.90;;;;;;4975478;28;20093;-87
2023/01/30 03:41:24;;;;;;;1999.90;753.40;;;;;;;;;;4959724;28;20054;-89
2023/01/30 03:43:50;;;;;;;1999.90;594.35;;;11.30;99.90;;;;;;4954695;28;20101;-87
2023/01/30 03:46:15;;;;;;;1999.90;999.90;;;11.30;99.90;;;;;;4956797;28;20499;-89
2023/01/30 03:48:41;;;;;;;1999.90;999.90;;;12.70;99.90;;;;;;4956140;28;20058;-89
2023/01/30 03:51:07;;;;;;;1999.90;968.50;;;11.80;99.90;;;;;;4929319;29;20090;-91
2023/01/30 03:53:32;;;;;;;1999.90;999.90;;;13.10;99.90;;;;;;4954723;28;20054;-91
2023/01/30 03:55:58;;;;;;;1999.90;999.90;;;11.60;99.90;;;;;;4962535;28;20046;-93
2023/01/30 03:58:24;;;;;;;1999.90;823.45;;;11.60;99.90;;;;;;4958886;28;20051;-91
2023/01/30 04:00:49;;;;;;;1999.90;999.90;;;11.50;99.90;;;;;;4928493;29;20058;-91
2023/01/30 04:03:15;;;;;;;1999.90;999.90;;;11.20;99.90;;;;;;4938318;28;20385;-92
2023/01/30 04:05:44;;;;;;;1999.90;547.25;;;10.80;99.90;;;;;;4932591;28;20043;-93
2023/01/30 04:08:10;;;;;;;1999.90;749.80;;;10.60;99.90;;;;;;4933063;29;20262;-94
2023/01/30 04:10:35;;;;;;;1999.90;999.90;;;12.80;99.90;;;;;;4940303;29;20043;-93
2023/01/30 04:13:01;;;;;;;1999.90;999.90;;;12.80;99.90;;;;;;4939225;28;20051;-94
2023/01/30 04:15:27;;;;;;;1999.90;999.90;;;10.50;99.90;;;;;;4906421;29;20489;-93
2023/01/30 04:17:53;;;;;;;1999.90;702.80;;;11.10;99.90;;;;;;4940160;29;20573;-94
2023/01/30 04:20:19;;;;;;;1999.90;998.50;;;10.90;99.90;;;;;;4939872;29;20055;-95
2023/01/30 04:22:47;;;;;;;1999.90;999.90;;;9.60;99.90;;;;;;4956088;28;20055;-93
2023/01/30 04:25:13;;;;;;;;;;;11.90;99.90;;;;;;4953503;28;20059;-94
2023/01/30 04:27:42;;;;;;;1999.90;810.22;;;10.90;99.90;;;;;;4929813;28;19926;-93
2023/01/30 04:30:08;;;;;;;1999.90;913.67;;;10.90;99.90;;;;;;4941799;28;20470;-95
2023/01/30 04:32:36;;;;;;;1999.90;999.90;;;8.30;99.90;;;;;;4923796;29;20083;-93
2023/01/30 04:35:03;;;;;;;1999.90;865.45;;;10.80;99.90;;;;;;4912206;29;20111;-93
2023/01/30 04:37:28;;;;;;;1999.90;999.90;;;10.70;99.90;;;;;;4905225;29;20408;-91
2023/01/30 04:39:57;;;;;;;1999.90;999.90;;;10.20;99.90;;;;;;4920272;29;20048;-91
2023/01/30 04:42:23;;;;;;;1999.90;770.95;;;;;;;;;;4918331;29;20130;-90
2023/01/30 04:44:51;;;;;;;1999.90;999.90;;;;;;;;;;4938413;29;20054;-91
2023/01/30 04:47:25;;;;;;;1999.90;999.90;;;;;;;;;;4923501;29;20462;-91
2023/01/30 04:49:55;;;;;;;1999.90;999.90;;;12.00;99.90;;;;;;4937018;29;20054;-89
2023/01/30 04:52:26;;;;;;;1999.90;999.90;;;9.80;99.90;;;;;;4938190;29;20090;-90
2023/01/30 04:54:56;;;;;;;1999.90;745.58;;;9.90;99.90;;;;;;4922590;29;20039;-89
2023/01/30 04:57:22;;;;;;;1999.90;999.90;;;9.60;99.90;;;;;;4911944;29;20044;-88
2023/01/30 04:59:48;;;;;;;1999.90;999.90;;;9.90;99.90;;;;;;4920263;29;20062;-88
2023/01/30 05:02:16;;;;;;;1999.90;999.90;;;10.40;99.90;;;;;;4924733;29;20047;-88
2023/01/30 05:04:42;;;;;;;1999.90;999.90;;;9.50;99.90;;;;;;4926645;28;20051;-88
2023/01/30 05:07:08;;;;;;;1999.90;761.20;;;9.70;99.90;;;;;;4930501;29;20047;-88
2023/01/30 05:09:34;;;;;;;1999.90;999.90;;;9.90;99.90;;;;;;4937770;29;20074;-87
2023/01/30 05:12:02;;;;;;;1999.90;999.90;;;;;;;;;;4936571;29;20059;-89
2023/01/30 05:14:30;;;;;;;1999.90;979.72;;;9.70;99.90;;;;;;4922954;29;20114;-88
2023/01/30 05:16:56;;;;;;;1999.90;999.90;;;;;;;;;;4921928;29;20059;-87
2023/01/30 05:19:22;;;;;;;1999.90;999.90;;;;;;;;;;4939147;29;20062;-88
2023/01/30 05:21:48;;;;;;;1999.90;722.13;;;10.30;99.90;;;;;;4953255;29;20059;-88
2023/01/30 05:24:14;;;;;;;1999.90;999.90;;;9.60;99.90;;;;;;4920301;29;20106;-88
2023/01/30 05:26:42;;;;;;;1999.90;977.10;;;9.40;99.90;;;;;;4937565;28;20456;-91
2023/01/30 05:29:09;;;;;;;1999.90;999.90;;;9.40;99.90;;;;;;4943045;29;20101;-87
2023/01/30 05:31:35;;;;;;;1999.90;712.28;;;10.10;99.90;;;;;;4956862;28;20055;-90
2023/01/30 05:34:00;;;;;;;1999.90;934.53;;;9.90;99.90;;;;;;4918836;28;20107;-88
2023/01/30 05:36:29;;;;;;;1999.90;999.90;;;11.10;99.90;;;;;;4920320;28;20123;-88
2023/01/30 05:38:54;;;;;;;1999.90;999.90;;;10.10;99.90;;;;;;4903871;29;20062;-87
2023/01/30 05:41:20;;;;;;;1999.90;956.08;;;;;;;;;;4929273;28;20051;-88
2023/01/30 05:43:50;;;;;;;1999.90;999.90;;;10.40;99.90;;;;;;4930451;29;20094;-88
2023/01/30 05:46:16;;;;;;;1999.90;999.90;;;9.90;99.90;;;;;;4937263;29;20135;-88
2023/01/30 05:48:42;;;;;;;1999.90;877.05;;;8.90;99.90;;;;;;4943257;28;20130;-89
2023/01/30 05:51:21;;;;;;;1999.90;999.90;;;9.70;99.90;;;;;;4931824;29;20377;-88
2023/01/30 05:53:50;;;;;;;1999.90;999.90;;;10.00;99.90;;;;;;4949028;28;20058;-90
2023/01/30 05:56:16;;;;;;;1999.90;999.90;;;;;;;;;;4900745;29;20078;-87
2023/01/30 05:58:42;;;;;;;1999.90;999.90;;;10.10;99.90;;;;;;4933997;29;20189;-90
2023/01/30 06:01:12;;;;;;;1999.90;999.90;;;10.00;99.90;;;;;;4927145;28;20057;-88
2023/01/30 06:03:38;;;;;;;1999.90;999.90;;;9.10;99.90;;;;;;4929049;29;20051;-88
2023/01/30 06:06:05;;;;;;;1999.90;999.90;;;9.90;99.90;;;;;;4923705;29;20059;-89
2023/01/30 06:08:32;;;;;;;1999.90;999.90;;;9.90;99.90;;;;;;4925400;29;20055;-88
2023/01/30 06:11:03;;;;;;;1999.90;999.90;;;8.10;99.90;;;;;;4911821;28;20556;-87
2023/01/30 06:13:31;;;;;;;1999.90;999.90;;;9.10;99.90;;;;;;4932602;29;20420;-87
2023/01/30 06:15:57;;;;;;;1999.90;999.90;;;;;;;;;;4909918;29;20118;-86
2023/01/30 06:18:23;;;;;;;1999.90;999.90;;;8.90;99.90;;;;;;4924515;28;20054;-88
2023/01/30 06:20:50;;;;;;;1999.90;999.90;;;11.20;99.90;;;;;;4951909;29;20051;-89
2023/01/30 06:23:16;;;;;;;1999.90;999.90;;;9.20;99.90;;;;;;4937472;29;20094;-88
2023/01/30 06:25:46;;;;;;;1999.90;999.90;;;9.20;99.90;;;;;;4937364;29;20051;-88
2023/01/30 06:28:13;;;;;;;1999.90;999.90;;;8.60;99.90;;;;;;4940046;28;20055;-88
2023/01/30 06:30:40;;;;;;;1999.90;999.90;;;;;;;;;;4932171;29;20044;-87
2023/01/30 06:33:08;;;;;;;1999.90;999.90;;;8.60;99.90;;;;;;4930940;29;20910;-89
2023/01/30 06:35:37;;;;;;;1999.90;999.90;;;10.20;99.90;;;;;;4937148;29;20058;-87
2023/01/30 06:38:03;;;;;;;1999.90;999.90;;;9.90;99.90;;;;;;4931469;29;20378;-89
2023/01/30 06:40:29;;;;;;;1999.90;999.90;;;;;;;;;;4920548;29;20091;-86
2023/01/30 06:42:55;;;;;;;1999.90;999.90;;;9.30;99.90;;;;;;4936887;29;20039;-87
2023/01/30 06:45:21;;;;;;;1999.90;999.90;;;8.70;99.90;;;;;;4923811;29;20054;-87
2023/01/30 06:47:52;;;;;;;1999.90;999.90;;;9.80;99.90;;;;;;4919953;29;20469;-93
2023/01/30 06:50:20;;;;;;;1999.90;999.90;;;9.70;99.90;;;;;;4921164;29;20575;-86
2023/01/30 06:52:47;;;;;;;1999.90;999.90;;;9.20;99.90;;;;;;4921685;29;20054;-89
2023/01/30 06:55:15;;;;;;;1999.90;999.90;;;9.20;99.90;;;;;;4921830;29;20055;-87
2023/01/30 06:57:41;;;;;;;;;;;9.40;99.90;;;;;;4936975;29;20047;-87
2023/01/30 07:00:10;;;;;;;1999.90;999.90;;;9.80;99.90;;;;;;4937021;29;19930;-88
2023/01/30 07:02:36;;;;;;;1999.90;999.90;;;10.10;99.90;;;;;;4921417;29;20079;-86
2023/01/30 07:05:03;;;;;;;1999.90;999.90;;;9.20;99.90;;;;;;4937226;29;20047;-86
2023/01/30 07:07:30;;;;;;;1999.90;999.90;;;9.30;99.90;;;;;;4937543;29;20087;-86
2023/01/30 07:09:56;;;;;;;1999.90;999.90;;;10.40;99.90;;;;;;4951922;29;20098;-87
2023/01/30 07:12:23;;;;;;;1999.90;999.90;;;10.20;99.90;;;;;;4936658;29;20052;-87
2023/01/30 07:14:50;;;;;;;1999.90;999.90;;;12.90;99.90;;;;;;4937139;29;20121;-90
2023/01/30 07:17:16;;;;;;;1999.90;999.90;;;9.80;99.90;;;;;;4937216;29;20457;-86
2023/01/30 07:19:43;;;;;;;1999.90;919.88;;;10.20;99.90;;;;;;4936727;29;20126;-85
2023/01/30 07:22:09;;;;;;;1999.90;999.90;;;9.70;99.90;;;;;;4936128;29;20480;-84
2023/01/30 07:24:34;;;;;;;1999.90;956.00;;;7.60;99.90;;;;;;4954065;29;20094;-87
2023/01/30 07:27:00;;;;;;;1999.90;999.90;;;9.40;99.90;;;;;;4936940;29;20063;-87
2023/01/30 07:29:26;;;;;;;1999.90;999.90;;;10.40;99.90;;;;;;4956534;28;20054;-85
2023/01/30 07:31:52;;;;;;;1999.90;999.90;;;9.80;99.90;;;;;;4935792;29;20051;-86
2023/01/30 07:34:17;;;;;;;1999.90;999.90;;;9.60;99.90;;;;;;4937260;29;20047;-86
2023/01/30 07:36:43;;;;;;;1999.90;999.90;;;7.10;99.90;;;;;;4953413;29;20047;-86
2023/01/30 07:39:09;;;;;;;1999.90;999.90;;;10.30;99.90;;;;;;4952923;29;20055;-86
2023/01/30 07:41:35;;;;;;;1999.90;999.90;;;9.90;99.90;;;;;;4937099;29;20520;-86
2023/01/30 07:44:01;;;;;;;1999.90;999.90;;;10.90;99.90;;;;;;4936780;29;20062;-87
2023/01/30 07:46:33;;;;;;;1999.90;999.50;;;9.50;99.90;;;;;;4935893;29;20054;-88
2023/01/30 07:49:03;;;;;;;1999.90;999.90;;;9.80;99.90;;;;;;4937151;29;20079;-87
2023/01/30 07:51:29;;;;;;;1999.90;999.90;;;10.00;99.90;;;;;;4954134;29;20047;-88
2023/01/30 07:53:55;;;;;;;1999.90;999.90;;;9.70;99.90;;;;;;4938500;29;20421;-87
2023/01/30 07:56:21;;;;;;;1999.90;989.45;;;9.60;99.90;;;;;;4940180;29;20051;-86
2023/01/30 07:58:47;;;;;;;1999.90;999.90;;;;;;;;;;4940636;29;20058;-86
2023/01/30 08:01:13;;;;;;;1999.90;999.90;;;9.70;99.90;;;;;;4940136;29;20055;-87
2023/01/30 08:03:39;;;;;;;1999.90;999.90;;;10.30;99.90;;;;;;4957509;29;20109;-86
2023/01/30 08:06:06;;;;;;;1999.90;999.90;;;10.10;99.90;;;;;;4939292;29;20043;-87
2023/01/30 08:08:32;;;;;;;1999.90;999.90;;;9.80;99.90;;;;;;4937777;29;20054;-86
2023/01/30 08:10:57;;;;;;;1999.90;999.90;;;12.20;99.90;;;;;;4944485;28;20047;-86
2023/01/30 08:13:23;;;;;;;1999.90;999.90;;;10.20;99.90;;;;;;4976665;28;20086;-87
2023/01/30 08:15:49;;;;;;;1999.90;999.90;;;9.90;99.90;;;;;;4959207;28;20059;-86
2023/01/30 08:18:15;;;;;;;1999.90;999.90;;;11.00;99.90;;;;;;4942036;29;20047;-85
2023/01/30 08:20:41;;;;;;;1999.90;999.90;;;10.00;99.90;;;;;;4938675;29;20043;-86
2023/01/30 08:23:07;;;;;;;1999.90;999.90;;;10.00;99.90;;;;;;4955291;29;20448;-88
2023/01/30 08:25:34;;;;;;;1999.90;999.90;;;10.40;99.90;;;;;;4956050;29;20051;-88
2023/01/30 08:28:00;;;;;;;1999.90;999.90;;;8.20;99.90;;;;;;4955499;28;20059;-86
2023/01/30 08:30:27;;;;;;;1999.90;999.90;;;10.30;99.90;;;;;;4976068;28;20460;-86
2023/01/30 08:32:53;;;;;;;1999.90;999.90;;;10.30;99.90;;;;;;4976298;28;20476;-86
2023/01/30 08:35:19;;;;;;;1999.90;999.90;;;10.10;99.90;;;;;;4958751;28;20061;-87
2023/01/30 08:37:44;;;;;;;1999.90;999.90;;;10.30;99.90;;;;;;4951844;29;20043;-88
2023/01/30 08:40:11;;;;;;;1999.90;999.90;;;10.90;99.90;;;;;;4938202;29;20064;-87
2023/01/30 08:42:37;;;;;;;1999.90;999.90;;;10.20;99.90;;;;;;4940051;29;20070;-86
2023/01/30 08:45:03;;;;;;;1999.90;999.90;;;;;;;;;;4956506;29;20481;-87
2023/01/30 08:47:29;;;;;;;1999.90;999.90;;;11.70;99.90;;;;;;4923086;29;20051;-88
2023/01/30 08:49:55;;;;;;;1999.90;999.90;;;10.40;99.90;;;;;;4937479;29;20388;-87
2023/01/30 08:52:20;;;;;;;1999.90;999.90;;;10.50;99.90;;;;;;4935980;29;20047;-87
2023/01/30 08:54:46;;;;;;;1999.90;999.90;;;10.50;99.90;;;;;;4955320;29;20107;-86
2023/01/30 08:57:13;;;;;;;1999.90;999.90;;;9.60;99.90;;;;;;4941505;29;20062;-86
2023/01/30 08:59:39;;;;;;;1999.90;999.90;;;10.30;99.90;;;;;;4956692;29;20043;-89
2023/01/30 09:02:07;;;;;;;1999.90;999.90;;;9.90;99.90;;;;;;4924260;29;20053;-90
2023/01/30 09:04:33;;;;;;;1999.90;770.05;;;10.20;99.90;;;;;;4924590;28;20055;-87
2023/01/30 09:06:59;;;;;;;1999.90;999.90;;;10.70;99.90;;;;;;4939902;29;20046;-89
2023/01/30 09:09:25;;;;;;;1999.90;999.90;;;10.30;99.90;;;;;;4938871;29;20539;-86
2023/01/30 09:11:51;;;;;;;1999.90;999.90;;;;;;;;;;4949032;28;20063;-88
2023/01/30 09:14:18;;;;;;;1999.90;892.92;;;10.30;91.60;;;;;;4958700;28;20059;-86
2023/01/30 09:16:54;;;;;;;1999.90;879.80;;;10.30;1.00;;;;;;4958738;28;20047;-87
2023/01/30 09:19:24;;;;;;;1999.90;999.90;;;10.50;9.50;;;;;;4951720;29;20614;-86
2023/01/30 09:21:52;;;;;;;1999.90;999.90;;;10.40;99.90;;;;;;4938356;29;20400;-87
2023/01/30 09:24:18;;;;;;;1999.90;999.90;;;10.10;99.90;;;;;;4907002;29;20063;-86
2023/01/30 09:26:44;;;;;;;1999.90;933.40;;;10.60;99.90;;;;;;4922731;29;20075;-85
2023/01/30 09:29:14;;;;;;;1999.90;999.90;;;9.80;99.90;;;;;;4939211;29;20097;-86
2023/01/30 09:31:40;;;;;;;1999.90;999.90;;;10.60;1.00;;;;;;4939254;29;20373;-86
2023/01/30 09:34:06;;;;;;;1999.90;999.90;;;10.50;99.90;;;;;;4948490;29;20476;-85
2023/01/30 09:36:32;;;;;;;1999.90;999.90;;;10.60;99.90;;;;;;4956513;29;20118;-85
2023/01/30 09:38:58;;;;;;;1999.90;999.90;;;10.60;99.90;;;;;;4938625;29;20089;-88
2023/01/30 09:41:33;;;;;;;1999.90;999.90;;;10.80;99.90;;;;;;4955839;29;20039;-85
2023/01/30 09:44:18;;;;;;;1999.90;999.90;;;10.90;1.00;;;;;;4949686;29;20052;-85
2023/01/30 09:47:12;;;;;;;1999.90;963.03;;;10.80;99.90;;;;;;4938409;29;20063;-85
2023/01/30 09:50:12;;;;;;;1999.90;999.90;;;10.90;99.90;;;;;;4938347;29;20083;-86
2023/01/30 09:52:56;;;;;;;1999.90;999.90;;;10.90;99.90;;;;;;4938531;29;20059;-87
2023/01/30 09:55:28;;;;;;;1999.90;999.90;;;10.90;99.90;;;;;;4937479;29;20101;-86
2023/01/30 09:57:57;;;;;;;1999.90;999.90;;;10.50;1.00;;;;;;4939427;29;20079;-87
2023/01/30 10:00:35;;;;;;;1999.90;894.83;;;10.70;99.90;;;;;;4938704;29;20404;-86
2023/01/30 10:03:10;;;;;;;1999.90;807.25;;;10.40;60.90;;;;;;4939182;29;20059;-87
2023/01/30 10:05:40;;;;;;;1999.90;999.90;;;9.80;99.90;;;;;;4937005;29;20078;-86
2023/01/30 10:08:27;;;;;;;1999.90;970.85;;;10.40;99.90;;;;;;4954568;29;20106;-93
2023/01/30 10:11:15;;;;;;;1999.90;999.90;;;10.40;99.90;;;;;;4927140;29;20118;-86
2023/01/30 10:13:59;;;;;;;1999.90;999.90;;;10.20;1.00;;;;;;4938843;29;20062;-87
2023/01/30 10:17:00;;;;;;;1999.90;999.90;;;10.90;99.90;;;;;;4936651;29;20198;-86
2023/01/30 10:19:44;;;;;;;;;;;10.40;99.90;;;;;;4938457;29;20102;-86
2023/01/30 10:22:40;;;;;;;1999.90;999.90;;;10.40;99.90;;;;;;4937621;29;19929;-84
2023/01/30 10:25:06;;;;;;;1999.90;999.90;;;10.70;99.90;;;;;;4955815;29;20057;-84
2023/01/30 10:27:33;;;;;;;1999.90;999.90;;;10.70;98.90;;;;;;4946128;29;20501;-84
2023/01/30 10:30:03;;;;;;;1999.90;999.90;;;10.70;5.50;;;;;;4936177;29;20051;-85
2023/01/30 10:32:47;;;;;;;1999.90;868.88;;;12.30;99.90;;;;;;4945459;28;20071;-85
2023/01/30 10:35:19;;;;;;;1999.90;755.22;;;10.70;99.90;;;;;;4955310;29;20063;-85
2023/01/30 10:37:49;;;;;;;1999.90;999.90;;;10.80;32.70;;;;;;4954869;29;20121;-85
2023/01/30 10:40:34;;;;;;;1999.90;999.90;;;9.10;29.10;;;;;;4954908;29;20448;-83
2023/01/30 10:43:30;;;;;;;1999.90;999.90;;;10.70;22.20;;;;;;4954398;28;20081;-85
2023/01/30 10:46:03;;;;;;;1999.90;999.90;;;10.70;99.90;;;;;;4954752;29;20122;-83
2023/01/30 10:49:01;;;;;;;1999.90;908.03;;;10.60;95.40;;;;;;4955004;29;20445;-84
2023/01/30 10:51:39;;;;;;;1999.90;999.90;;;7.90;99.90;;;;;;4954496;29;20091;-84
2023/01/30 10:54:08;;;;;;;;;;;10.30;99.90;;;;;;4955107;29;20051;-84
2023/01/30 10:56:41;;;;;;;1999.90;999.90;;;10.20;99.90;;;;;;4936390;29;19922;-84
2023/01/30 10:59:16;;;;;;;1999.90;999.90;;;10.20;99.90;;;;;;4937429;29;20064;-85
2023/01/30 11:01:53;;;;;;;1999.90;999.90;;;9.90;99.90;;;;;;4937422;29;20057;-84
2023/01/30 11:04:31;;;;;;;1999.90;999.90;;;10.70;20.80;;;;;;4954765;29;20047;-85
2023/01/30 11:06:59;;;;;;;1999.90;999.90;;;9.70;17.10;;;;;;4936333;29;20051;-84
2023/01/30 11:09:41;;;;;;;1999.90;999.90;;;9.80;99.90;;;;;;4921985;29;20138;-84
2023/01/30 11:12:07;;;;;;;1999.90;999.90;;;9.70;99.90;;;;;;4937429;29;20190;-86
2023/01/30 11:14:55;;;;;;;1999.90;999.90;;;9.90;68.40;;;;;;4954718;29;20138;-85
2023/01/30 11:17:29;;;;;;;1999.90;999.90;;;9.50;99.90;;;;;;4953695;29;20169;-84
2023/01/30 11:19:56;;;;;;;1999.90;958.33;;;10.00;1.00;;;;;;4954612;29;20098;-85
2023/01/30 11:22:27;;;;;;;1999.90;999.90;;;10.20;99.90;;;;;;4921571;29;20057;-87
2023/01/30 11:25:02;;;;;;;1999.90;999.90;;;10.00;99.90;;;;;;4937109;29;20110;-86
2023/01/30 11:27:30;;;;;;;1999.90;999.90;;;10.00;99.90;;;;;;4953010;28;20047;-85
2023/01/30 11:30:26;;;;;;;1999.90;999.90;;;10.20;99.90;;;;;;4959228;29;20464;-84
2023/01/30 11:33:15;;;;;;;1999.90;999.90;;;10.40;99.90;;;;;;4939982;29;20063;-86
2023/01/30 11:35:53;;;;;;;;;;;10.50;99.90;;;;;;4941270;29;20503;-84
2023/01/30 11:38:23;;;;;;;1999.90;999.90;;;11.30;24.40;;;;;;4956830;29;19926;-86
2023/01/30 11:40:48;;;;;;;1999.90;999.90;;;10.70;1.00;;;;;;4940574;29;20055;-85
2023/01/30 11:43:14;;;;;;;1999.90;999.90;;;10.70;1.00;;;;;;4925105;29;20051;-87
2023/01/30 11:45:48;;;;;;;1999.90;999.90;;;10.80;1.00;;;;;;4959266;29;20123;-85
2023/01/30 11:48:19;;;;;;;1999.90;999.90;;;10.60;99.90;;;;;;4962365;29;20111;-94
2023/01/30 11:50:49;;;;;;;1999.90;999.90;;;10.50;1.00;;;;;;4962423;29;20353;-86
2023/01/30 11:53:40;;;;;;;1999.90;999.90;;;10.50;1.00;;;;;;4945769;29;20055;-90
2023/01/30 11:56:14;;;;;;;1999.90;999.90;;;10.50;1.00;;;;;;4939140;29;20059;-84
2023/01/30 11:58:45;;;;;;;1999.90;999.90;;;10.40;1.00;;;;;;4948902;29;20467;-85
2023/01/30 12:01:11;;;;;;;1999.90;999.90;;;10.30;1.00;;;;;;4938909;29;20086;-87
2023/01/30 12:03:46;;;;;;;1999.90;999.90;;;10.30;1.00;;;;;;4941370;29;20145;-86
2023/01/30 12:06:27;;;;;;;1999.90;999.90;;;10.30;99.90;;;;;;4940668;29;20050;-84
2023/01/30 12:08:53;;;;;;;1999.90;999.90;;;10.40;99.90;;;;;;4957156;29;20083;-84
2023/01/30 12:11:30;;;;;;;1999.90;999.90;;;10.50;99.90;;;;;;4962325;28;20043;-85
2023/01/30 12:14:20;;;;;;;1999.90;999.90;;;10.60;99.90;;;;;;4976475;28;20059;-84
2023/01/30 12:16:50;;;;;;;1999.90;999.90;;;10.80;99.90;;;;;;4976269;28;20496;-84
2023/01/30 12:19:46;;;;;;;1999.90;999.90;;;10.90;99.90;;;;;;4959680;28;20046;-85
2023/01/30 12:22:23;;;;;;;1999.90;999.90;;;11.00;99.90;;;;;;4963470;28;20043;-85
2023/01/30 12:25:00;;;;;;;1999.90;999.90;;;11.10;99.90;;;;;;4956747;29;20051;-86
2023/01/30 12:28:11;;;;;;;1999.90;999.90;;;11.00;99.90;;;;;;4931842;29;20127;-84
2023/01/30 12:30:47;;;;;;;1999.90;999.90;;;11.00;99.90;;;;;;4877988;29;20088;-85
2023/01/30 12:33:15;;;;;;;1999.90;999.90;;;11.00;99.90;;;;;;4932382;29;20075;-84